Waldron Lake, Indiana
Current Conditions -  °F | °C
As of 7:53 AM on Sunday 23 Nov 2014 (Local Time) from KGSH Reporting Station
Overcast Overcast  
Wind Chill: 43°   Ceiling: 3600
Heat Index: 47°   Visibility: 10mi
Dew Point: 42°   Wind: 8mph
Humidity: 83%   Direction: 160°SSE
Pressure: 29.87"   Gusts: NA
Location:  41.4818°N, 85.481°W
Report Text: KGSH 231253Z AUTO 16007KT 10SM BKN036 OVC080 08/06 A2987 RMK AO2 SLP117 T00830056
Loading
Personal Weather Stations






























Interactive Weather Map New forecast layout! Learn more

10-Day Weather Forecast

Advertisements
Track Severe Weather on mobile